Terminal Aerodrome Forecast
Issued by NWS Cleveland, OH

Home | Current Version | Previous Version | Graphics & Text | Print | Product List | Glossary On
Versions: 1 2 3 4 5 6 7 8 9 10 11 12 13 14 15 16 17 18 19 20 21 22 23 24
000
FTUS41 KCLE 231300 AAB
TAFCAK
TAF AMD
KCAK 231358Z 2314/2412 32007KT 5SM BR OVC008
      TEMPO 2314/2315 SCT008 BKN015
     FM231500 32007KT P6SM SCT008 BKN015
     FM231600 32007KT P6SM SCT025
     FM231700 32005KT P6SM SCT035
     FM232200 29003KT P6SM BKN250=

USA.gov is the U.S. government's official web portal to all federal, state and local government web resources and services.